Time;durP1;ratioP1;P1;durP2;ratioP2;P2;SDS_P1;SDS_P2;PMS_P1;PMS_P2;Temp;Humidity;BMP_temperature;BMP_pressure;BME280_temperature;BME280_humidity;BME280_pressure;Samples;Min_cycle;Max_cycle;Signal;HPM_P1;HPM_P2
2023/10/16 00:01:38;;;;;;;7.10;0.20;;;;;;;4.98;60.43;102049.22;4982458;28;20042;-69
2023/10/16 00:04:08;;;;;;;2.92;0.28;;;;;;;5.22;59.54;102043.22;4994606;28;20041;-68
2023/10/16 00:06:34;;;;;;;3.75;0.40;;;;;;;5.24;59.37;102037.16;4980977;28;20066;-69
2023/10/16 00:09:10;;;;;;;2.97;0.30;;;;;;;5.30;59.21;102035.44;4965592;28;20061;-67
2023/10/16 00:11:37;;;;;;;4.22;0.20;;;;;;;5.08;60.11;102022.47;5004578;28;20042;-67
2023/10/16 00:14:13;;;;;;;5.00;0.40;;;;;;;5.29;59.50;102023.34;4959433;28;20058;-68
2023/10/16 00:16:39;;;;;;;2.17;0.17;;;;;;;5.25;59.57;102023.31;5003505;28;20035;-64
2023/10/16 00:19:09;;;;;;;3.92;0.10;;;;;;;5.19;59.72;102028.53;4955927;28;20630;-67
2023/10/16 00:21:43;;;;;;;2.53;0.50;;;;;;;5.12;59.18;102031.09;4992346;28;20986;-68
2023/10/16 00:24:10;;;;;;;6.82;0.65;;;;;;;4.94;59.51;102027.59;4960011;28;20397;-69
2023/10/16 00:26:35;;;;;;;7.75;0.77;;;;;;;5.00;59.49;102031.94;5002658;28;20117;-69
2023/10/16 00:29:43;;;;;;;4.03;0.65;;;;;;;4.80;60.22;102037.91;4957953;28;20046;-69
2023/10/16 00:31:51;;;;;;;2.05;0.25;;;;;;;4.73;60.30;102030.97;4990542;28;20412;-69
2023/10/16 00:34:20;;;;;;;4.88;0.32;;;;;;;4.58;60.89;102029.19;4973010;28;20405;-65
2023/10/16 00:36:53;;;;;;;2.33;0.10;;;;;;;4.71;60.36;102035.28;4979053;28;20359;-67
2023/10/16 00:39:20;;;;;;;0.57;0.10;;;;;;;4.65;60.69;102040.44;4970067;28;20129;-68
2023/10/16 00:41:50;;;;;;;0.70;0.03;;;;;;;4.80;59.78;102040.50;4986148;28;20672;-66
2023/10/16 00:44:17;;;;;;;1.02;0.15;;;;;;;4.77;59.72;102037.91;4961052;28;20080;-66
2023/10/16 00:46:50;;;;;;;6.65;0.20;;;;;;;4.52;60.88;102044.72;4991087;28;20121;-67
2023/10/16 00:49:18;;;;;;;4.22;0.20;;;;;;;4.55;61.26;102051.63;4958469;28;20092;-67
2023/10/16 00:51:45;;;;;;;3.75;0.40;;;;;;;4.36;61.72;102053.25;4986990;28;20088;-66
2023/10/16 00:54:18;;;;;;;2.17;0.10;;;;;;;4.51;61.57;102055.06;4962037;28;20144;-65
2023/10/16 00:56:46;;;;;;;3.70;0.10;;;;;;;4.56;61.72;102061.13;4996723;28;20061;-66
2023/10/16 00:59:23;;;;;;;1.15;0.20;;;;;;;4.84;60.65;102068.13;4972178;28;20128;-66
2023/10/16 01:02:04;;;;;;;4.30;0.10;;;;;;;4.79;60.78;102062.09;4992718;28;20046;-68
2023/10/16 01:04:30;;;;;;;4.28;0.10;;;;;;;4.66;61.34;102057.72;4960481;28;20195;-69
2023/10/16 01:06:57;;;;;;;1.15;0.10;;;;;;;4.53;61.41;102055.94;4979673;28;20065;-67
2023/10/16 01:09:22;;;;;;;2.95;0.03;;;;;;;4.87;60.72;102061.25;4980453;28;20113;-67
2023/10/16 01:11:52;;;;;;;1.83;0.20;;;;;;;4.67;61.38;102054.25;4979717;28;20041;-67
2023/10/16 01:14:18;;;;;;;2.17;0.40;;;;;;;4.88;60.82;102056.09;4987024;28;20049;-68
2023/10/16 01:16:46;;;;;;;1.55;0.10;;;;;;;4.09;62.98;102054.00;4976531;28;20095;-65
2023/10/16 01:19:19;;;;;;;8.60;0.55;;;;;;;4.77;61.60;102044.81;4973054;28;20050;-67
2023/10/16 01:21:46;;;;;;;1.08;0.32;;;;;;;4.68;61.87;102048.25;4984330;28;20573;-66
2023/10/16 01:24:12;;;;;;;1.85;0.20;;;;;;;4.50;62.22;102041.25;4955555;28;20256;-63
2023/10/16 01:26:40;;;;;;;1.50;0.10;;;;;;;4.24;63.66;102048.91;4998141;28;20215;-67
2023/10/16 01:29:10;;;;;;;0.63;0.08;;;;;;;4.75;61.89;102047.38;4976458;28;20567;-68
2023/10/16 01:31:36;;;;;;;2.95;0.20;;;;;;;4.80;61.38;102040.50;4975514;28;20099;-69
2023/10/16 01:34:03;;;;;;;1.75;0.50;;;;;;;4.25;63.12;102037.69;4978040;28;20046;-69
2023/10/16 01:36:33;;;;;;;4.13;0.15;;;;;;;4.76;62.00;102032.72;4971159;28;20045;-70
2023/10/16 01:39:00;;;;;;;3.83;0.20;;;;;;;4.52;62.71;102033.47;4956731;28;20432;-66
2023/10/16 01:41:26;;;;;;;3.08;0.50;;;;;;;4.70;62.33;102030.97;4986913;28;20166;-66
2023/10/16 01:43:52;;;;;;;2.00;0.10;;;;;;;4.79;61.57;102027.56;4952273;28;20038;-67
2023/10/16 01:46:18;;;;;;;2.10;0.30;;;;;;;5.02;60.94;102035.41;5001039;28;20042;-66
2023/10/16 01:48:46;;;;;;;3.35;0.47;;;;;;;4.91;61.55;102026.75;4982390;28;20562;-67
2023/10/16 01:51:18;;;;;;;0.90;0.10;;;;;;;4.90;61.77;102037.94;4977669;28;20034;-68
2023/10/16 01:53:44;;;;;;;;;;;;;;;4.91;61.26;102034.53;4976104;28;20038;-71
2023/10/16 01:56:12;;;;;;;2.97;0.30;;;;;;;5.04;60.93;102029.34;4977077;28;19928;-70
2023/10/16 01:58:52;;;;;;;0.88;0.08;;;;;;;5.04;61.21;102029.34;4979606;28;20064;-68
2023/10/16 02:01:19;;;;;;;6.35;0.50;;;;;;;4.96;61.49;102028.47;4986216;28;20577;-65
2023/10/16 02:03:49;;;;;;;2.80;0.20;;;;;;;5.06;60.97;102029.38;4987627;28;20042;-67
2023/10/16 02:06:16;;;;;;;7.43;0.10;;;;;;;4.86;61.83;102033.63;4972360;28;20515;-65
2023/10/16 02:08:44;;;;;;;1.65;0.10;;;;;;;5.12;61.03;102031.94;4965380;28;20053;-67
2023/10/16 02:11:11;;;;;;;3.92;0.17;;;;;;;5.04;61.06;102034.53;4974102;28;20552;-67
2023/10/16 02:13:40;;;;;;;3.17;0.25;;;;;;;5.05;60.99;102035.41;4973798;28;20653;-66
2023/10/16 02:16:10;;;;;;;5.05;0.20;;;;;;;4.97;61.67;102031.94;4963343;28;20064;-68
2023/10/16 02:18:37;;;;;;;5.53;0.13;;;;;;;4.87;62.02;102043.97;4959662;28;20050;-68
2023/10/16 02:21:04;;;;;;;1.92;0.47;;;;;;;5.09;61.57;102051.81;4975030;28;20068;-67
2023/10/16 02:23:33;;;;;;;0.77;0.10;;;;;;;5.08;61.68;102045.78;4964684;28;20489;-68
2023/10/16 02:26:01;;;;;;;4.40;0.17;;;;;;;5.33;61.04;102040.63;4980434;28;20038;-67
2023/10/16 02:28:31;;;;;;;4.00;0.10;;;;;;;5.25;61.29;102048.38;4961738;28;20058;-69
2023/10/16 02:31:00;;;;;;;4.07;0.10;;;;;;;5.23;61.15;102047.50;4992462;28;20405;-67
2023/10/16 02:33:29;;;;;;;3.20;0.10;;;;;;;5.32;60.55;102038.88;4969828;28;21010;-68
2023/10/16 02:35:57;;;;;;;0.70;0.10;;;;;;;5.17;60.93;102040.63;4976155;28;20412;-67
2023/10/16 02:38:27;;;;;;;0.68;0.10;;;;;;;5.15;61.34;102046.66;4977385;28;20041;-66
2023/10/16 02:41:01;;;;;;;5.33;0.40;;;;;;;5.28;61.45;102057.88;4974590;28;20255;-70
2023/10/16 02:43:29;;;;;;;0.82;0.10;;;;;;;5.19;61.46;102054.44;4965965;28;20040;-71
2023/10/16 02:45:55;;;;;;;2.20;0.15;;;;;;;5.35;61.16;102064.84;4981537;28;20025;-73
2023/10/16 02:48:21;;;;;;;1.02;0.10;;;;;;;5.34;61.55;102066.53;4978204;28;20130;-70
2023/10/16 02:50:53;;;;;;;5.78;0.20;;;;;;;5.29;61.17;102057.03;4990181;28;20046;-71
2023/10/16 02:53:21;;;;;;;2.97;0.30;;;;;;;5.15;61.75;102050.13;4973974;28;20042;-71
2023/10/16 02:55:49;;;;;;;2.70;0.10;;;;;;;4.90;62.33;102056.09;4980430;28;20166;-70
2023/10/16 02:58:15;;;;;;;1.23;0.10;;;;;;;5.07;62.28;102043.19;4977723;28;20165;-70
2023/10/16 03:00:49;;;;;;;2.95;0.15;;;;;;;5.08;62.29;102040.59;4974654;28;20400;-71
2023/10/16 03:03:17;;;;;;;0.32;0.10;;;;;;;4.98;62.79;102042.28;4977248;28;20565;-71
2023/10/16 03:05:44;;;;;;;4.47;0.25;;;;;;;5.34;61.12;102035.44;4962691;28;20030;-70
2023/10/16 03:08:10;;;;;;;4.05;0.28;;;;;;;5.16;61.72;102035.41;4975506;28;20057;-68
2023/10/16 03:10:36;;;;;;;1.88;0.50;;;;;;;5.17;61.70;102035.44;4956866;28;20057;-68
2023/10/16 03:13:05;;;;;;;0.63;0.10;;;;;;;5.04;62.15;102038.88;4974303;28;20247;-70
2023/10/16 03:15:46;;;;;;;5.35;0.10;;;;;;;4.96;62.31;102033.66;4972168;28;20076;-68
2023/10/16 03:18:22;;;;;;;1.10;0.10;;;;;;;5.17;62.28;102035.44;4963660;28;20042;-70
2023/10/16 03:20:48;;;;;;;1.33;0.50;;;;;;;4.58;64.03;102039.56;4975097;28;20046;-70
2023/10/16 03:23:14;;;;;;;1.25;0.10;;;;;;;5.04;62.57;102031.09;4974915;28;20818;-70
2023/10/16 03:28:07;;;;;;;0.28;0.00;;;;;;;5.24;62.53;102031.97;4975704;28;20065;-70
2023/10/16 03:30:32;;;;;;;2.28;0.10;;;;;;;5.37;62.17;102038.03;4970996;28;20043;-71
2023/10/16 03:32:59;;;;;;;0.88;0.10;;;;;;;5.27;62.70;102044.06;4975611;28;20349;-70
2023/10/16 03:35:31;;;;;;;0.45;0.10;;;;;;;5.07;62.99;102041.44;4974255;28;20511;-70
2023/10/16 03:37:58;;;;;;;2.45;0.20;;;;;;;5.06;63.53;102052.69;4983871;28;20041;-70
2023/10/16 03:40:27;;;;;;;2.10;0.08;;;;;;;5.18;63.26;102047.50;4979846;28;20038;-70
2023/10/16 03:42:54;;;;;;;2.20;0.10;;;;;;;4.90;64.02;102048.31;4964320;28;20149;-70
2023/10/16 03:45:21;;;;;;;1.20;0.10;;;;;;;5.19;63.42;102038.88;4981600;28;20034;-70
2023/10/16 03:47:53;;;;;;;1.92;0.10;;;;;;;5.08;63.58;102037.13;4961667;28;20051;-71
2023/10/16 03:50:23;;;;;;;3.13;0.10;;;;;;;5.33;62.81;102035.44;4974312;28;20300;-68
2023/10/16 03:52:49;;;;;;;5.28;0.38;;;;;;;5.33;62.37;102040.63;4981517;28;20046;-71
2023/10/16 03:55:22;;;;;;;1.67;0.10;;;;;;;4.94;63.65;102053.50;4977508;28;20038;-69
2023/10/16 03:57:51;;;;;;;3.50;0.10;;;;;;;5.04;63.61;102067.38;4975818;28;20091;-69
2023/10/16 04:00:18;;;;;;;2.65;0.45;;;;;;;5.25;63.24;102062.19;4986291;28;20030;-68
2023/10/16 04:02:44;;;;;;;1.25;0.10;;;;;;;5.06;63.54;102063.06;4963077;28;20042;-71
2023/10/16 04:08:15;;;;;;;1.17;0.10;;;;;;;5.19;63.33;102049.25;4965460;28;20699;-68
2023/10/16 04:10:48;;;;;;;1.85;0.10;;;;;;;5.53;62.09;102041.50;4960165;28;20544;-70
2023/10/16 04:13:15;;;;;;;0.85;0.10;;;;;;;5.28;62.62;102055.28;4972044;28;20528;-69
2023/10/16 04:21:10;;;;;;;2.35;0.10;;;;;;;5.48;62.17;102043.22;4977998;28;20483;-69
2023/10/16 04:31:44;;;;;;;0.40;0.10;;;;;;;5.42;62.28;102056.19;4976030;28;20041;-70
2023/10/16 06:14:09;;;;;;;5.82;0.20;;;;;;;5.25;62.55;102038.00;4953037;28;20118;-70
2023/10/16 06:14:21;;;;;;;5.43;0.10;;;;;;;5.50;60.80;102038.88;4975053;28;20096;-70
2023/10/16 06:16:50;;;;;;;3.78;0.20;;;;;;;5.51;60.86;102035.44;4971045;28;20038;-69
2023/10/16 06:19:17;;;;;;;3.13;0.15;;;;;;;5.53;61.06;102033.72;4981970;28;20042;-70
2023/10/16 06:21:49;;;;;;;3.50;0.10;;;;;;;5.65;60.68;102038.03;4974269;28;20386;-70
2023/10/16 06:27:26;;;;;;;0.88;0.10;;;;;;;5.64;60.74;102042.34;4974451;28;20117;-70
2023/10/16 06:29:51;;;;;;;4.28;0.17;;;;;;;5.63;60.75;102045.78;4979570;28;20498;-70
2023/10/16 06:32:21;;;;;;;2.97;0.38;;;;;;;5.68;60.49;102040.59;4961817;28;20073;-70
2023/10/16 06:34:48;;;;;;;4.47;0.30;;;;;;;5.69;59.95;102044.09;4973050;28;20119;-70
2023/10/16 06:37:18;;;;;;;3.20;0.10;;;;;;;5.74;60.36;102050.97;4974507;28;20497;-70
2023/10/16 06:39:48;;;;;;;0.88;0.30;;;;;;;5.71;60.30;102044.94;4978825;28;20489;-70
2023/10/16 06:42:19;;;;;;;1.30;0.50;;;;;;;5.67;59.99;102052.72;4975471;28;20042;-72
2023/10/16 06:44:53;;;;;;;3.10;0.60;;;;;;;5.40;60.00;102058.78;4979167;28;20058;-71
2023/10/16 06:47:23;;;;;;;0.95;0.20;;;;;;;5.55;60.38;102062.25;4973826;28;20116;-72
2023/10/16 06:49:52;;;;;;;2.47;0.47;;;;;;;5.74;60.45;102068.28;4985362;28;20034;-72
2023/10/16 06:52:17;;;;;;;3.80;0.73;;;;;;;5.89;59.86;102068.28;4973270;28;20289;-72
2023/10/16 06:54:44;;;;;;;5.00;0.20;;;;;;;5.87;59.77;102076.03;4981918;28;20060;-73
2023/10/16 06:57:11;;;;;;;2.35;0.50;;;;;;;5.99;59.77;102075.16;4983305;28;20361;-72
2023/10/16 06:59:45;;;;;;;3.97;0.20;;;;;;;5.98;59.64;102078.63;4973575;28;20457;-72
2023/10/16 07:02:15;;;;;;;2.60;0.10;;;;;;;6.09;59.58;102082.06;4975837;28;20278;-73
2023/10/16 07:04:47;;;;;;;2.95;0.85;;;;;;;6.15;59.41;102082.91;4974649;28;20493;-71
2023/10/16 07:07:16;;;;;;;;;;;;;;;6.15;59.52;102090.72;4977206;28;20053;-69
2023/10/16 07:09:47;;;;;;;0.50;0.10;;;;;;;6.22;59.55;102093.31;4975256;28;19918;-68
2023/10/16 07:12:19;;;;;;;1.45;0.10;;;;;;;6.29;59.40;102083.81;4975221;28;20513;-69
2023/10/16 07:14:55;;;;;;;;;;;;;;;6.43;59.54;102084.59;4973202;28;20140;-69
2023/10/16 07:17:24;;;;;;;4.05;0.30;;;;;;;6.82;59.85;102076.66;4974125;28;19957;-69
2023/10/16 07:19:51;;;;;;;3.67;0.40;;;;;;;8.40;56.36;102075.38;4961975;28;20038;-69
2023/10/16 07:22:16;;;;;;;6.28;0.47;;;;;;;9.97;54.22;102070.50;4973878;28;20072;-69
2023/10/16 07:24:43;;;;;;;3.38;0.35;;;;;;;11.72;48.47;102065.78;4974911;28;20039;-69
2023/10/16 07:27:12;;;;;;;3.30;0.20;;;;;;;12.84;42.21;102073.19;4977695;28;20048;-67
2023/10/16 07:29:43;;;;;;;2.17;0.10;;;;;;;12.29;42.19;102073.88;4975608;28;20041;-67
2023/10/16 07:32:09;;;;;;;1.60;0.20;;;;;;;11.11;43.88;102074.25;4978427;28;20073;-66
2023/10/16 07:34:36;;;;;;;2.67;0.10;;;;;;;9.85;46.26;102074.16;4975704;28;20061;-67
2023/10/16 07:37:04;;;;;;;1.27;0.17;;;;;;;9.08;47.82;102080.59;4978035;28;20262;-69
2023/10/16 07:39:30;;;;;;;2.15;0.52;;;;;;;8.39;48.82;102081.47;4985217;28;20169;-68
2023/10/16 07:41:55;;;;;;;2.33;0.10;;;;;;;8.15;50.31;102086.06;4974129;28;20283;-68
2023/10/16 07:44:21;;;;;;;7.75;0.10;;;;;;;7.51;52.19;102081.41;4979629;28;20038;-70
2023/10/16 07:46:48;;;;;;;1.38;0.10;;;;;;;7.46;52.42;102084.03;4975282;28;20042;-70
2023/10/16 07:49:15;;;;;;;0.50;0.00;;;;;;;7.56;52.48;102089.22;4974477;28;20108;-70
2023/10/16 07:51:45;;;;;;;1.20;0.30;;;;;;;7.85;52.38;102081.19;4983195;28;20275;-71
2023/10/16 07:54:11;;;;;;;2.10;0.10;;;;;;;7.99;52.73;102089.72;4984105;28;20612;-70
2023/10/16 07:56:38;;;;;;;2.75;0.20;;;;;;;8.24;52.50;102094.66;4977224;28;20306;-69
2023/10/16 07:59:07;;;;;;;1.60;0.25;;;;;;;8.55;52.66;102100.38;4976705;28;20056;-71
2023/10/16 08:01:57;;;;;;;3.30;0.10;;;;;;;8.77;52.06;102106.25;4986186;28;20149;-68
2023/10/16 08:06:52;;;;;;;1.25;0.10;;;;;;;7.33;54.85;102124.91;4979170;28;20441;-67
2023/10/16 08:14:35;;;;;;;3.60;0.20;;;;;;;6.95;57.01;102124.25;4976351;28;20038;-67
2023/10/16 08:17:04;;;;;;;4.65;0.50;;;;;;;6.88;57.14;102126.88;4972975;28;20041;-69
2023/10/16 08:19:34;;;;;;;1.02;0.10;;;;;;;6.83;57.32;102123.44;4976301;28;20169;-67
2023/10/16 08:22:03;;;;;;;2.65;0.20;;;;;;;6.89;57.26;102113.00;4970205;28;20459;-70
2023/10/16 08:24:30;;;;;;;3.40;0.20;;;;;;;7.17;57.03;102122.41;4973980;28;20141;-70
2023/10/16 08:27:10;;;;;;;4.75;0.40;;;;;;;7.35;56.62;102122.28;4973470;28;20025;-67
2023/10/16 08:29:37;;;;;;;4.15;0.10;;;;;;;7.49;56.10;102120.47;4971508;28;20037;-71
2023/10/16 08:34:47;;;;;;;3.10;0.75;;;;;;;8.62;54.65;102122.03;4973667;28;20293;-69
2023/10/16 08:37:13;;;;;;;4.38;0.40;;;;;;;8.80;54.36;102126.19;4972329;28;20046;-71
2023/10/16 08:39:47;;;;;;;2.63;0.80;;;;;;;8.69;53.20;102118.47;4974440;28;20389;-70
2023/10/16 08:42:20;;;;;;;4.15;0.40;;;;;;;8.68;53.87;102128.03;4974737;28;20536;-70
2023/10/16 08:44:51;;;;;;;4.72;0.50;;;;;;;8.80;54.67;102127.03;4976199;28;20104;-68
2023/10/16 08:47:24;;;;;;;2.95;0.68;;;;;;;9.59;53.18;102137.25;4980449;28;20490;-69
2023/10/16 08:49:54;;;;;;;2.70;0.40;;;;;;;10.14;52.40;102128.50;4974149;28;20096;-71
2023/10/16 08:52:26;;;;;;;15.43;1.05;;;;;;;10.38;51.25;102134.16;4973769;28;20485;-69
2023/10/16 08:57:19;;;;;;;5.85;0.32;;;;;;;11.54;48.91;102130.81;4974135;28;20056;-69
2023/10/16 08:59:52;;;;;;;3.60;0.35;;;;;;;12.35;48.72;102132.28;4976819;28;20052;-70
2023/10/16 09:02:20;;;;;;;1.67;0.95;;;;;;;12.76;45.93;102132.88;4972917;28;20046;-66
2023/10/16 09:04:52;;;;;;;3.63;0.10;;;;;;;13.16;43.93;102134.31;4975417;28;20121;-67
2023/10/16 09:07:18;;;;;;;2.38;0.10;;;;;;;12.87;41.53;102139.56;4974612;28;20053;-68
2023/10/16 09:09:48;;;;;;;2.67;0.10;;;;;;;13.00;40.77;102139.19;4979873;28;20033;-69
2023/10/16 09:12:27;;;;;;;4.28;0.30;;;;;;;12.73;41.17;102138.25;4974899;28;20145;-69
2023/10/16 09:15:05;;;;;;;2.53;0.10;;;;;;;12.68;40.10;102136.56;4973449;28;20037;-68
2023/10/16 09:17:33;;;;;;;0.20;0.00;;;;;;;12.01;41.69;102135.81;4971364;28;20042;-70
2023/10/16 09:19:59;;;;;;;6.78;0.40;;;;;;;11.40;43.74;102136.38;4970281;28;20034;-70
2023/10/16 09:22:29;;;;;;;4.18;0.40;;;;;;;11.10;44.27;102140.56;4972196;28;20410;-67
2023/10/16 09:24:55;;;;;;;0.65;0.05;;;;;;;10.16;45.61;102138.94;4975293;28;20591;-70
2023/10/16 09:27:29;;;;;;;0.43;0.00;;;;;;;9.84;47.02;102139.50;4973560;28;20042;-71
2023/10/16 09:29:58;;;;;;;3.70;0.10;;;;;;;10.22;46.61;102142.28;4964464;28;20045;-71
2023/10/16 09:32:39;;;;;;;4.35;0.10;;;;;;;10.03;46.61;102140.88;4966716;28;20046;-71
2023/10/16 09:35:06;;;;;;;1.77;0.10;;;;;;;10.32;46.31;102136.88;4973350;28;20030;-69
2023/10/16 09:37:35;;;;;;;4.32;0.13;;;;;;;10.33;46.58;102138.63;4982262;28;20076;-68
2023/10/16 09:40:35;;;;;;;2.38;0.13;;;;;;;10.46;46.48;102139.22;4971408;28;20030;-69
2023/10/16 09:43:05;;;;;;;3.78;0.10;;;;;;;10.80;46.12;102137.69;4976143;28;20128;-70
2023/10/16 09:45:33;;;;;;;2.10;0.22;;;;;;;11.66;45.50;102137.50;4980324;28;20356;-71
2023/10/16 09:48:07;;;;;;;1.98;0.65;;;;;;;12.08;43.04;102139.97;4973980;28;20132;-71
2023/10/16 09:50:34;;;;;;;2.17;0.10;;;;;;;12.44;43.30;102134.63;4973159;28;20744;-70
2023/10/16 09:53:01;;;;;;;1.50;0.00;;;;;;;12.15;39.88;102136.28;4971065;28;20050;-71
2023/10/16 09:55:30;;;;;;;1.50;0.03;;;;;;;12.20;41.04;102144.91;4976394;28;20038;-73
2023/10/16 09:58:00;;;;;;;0.52;0.00;;;;;;;12.11;41.29;102142.53;4967368;28;20580;-72
2023/10/16 10:00:31;;;;;;;0.30;0.00;;;;;;;11.77;40.42;102140.75;4988781;28;20378;-73
2023/10/16 10:03:35;;;;;;;1.23;0.10;;;;;;;11.41;40.61;102138.09;4977916;28;20054;-74
2023/10/16 10:11:47;;;;;;;4.20;0.10;;;;;;;11.76;40.91;102141.63;4973659;28;20135;-73
2023/10/16 10:14:26;;;;;;;2.90;0.10;;;;;;;11.54;40.20;102143.06;4974216;28;20409;-72
2023/10/16 10:16:58;;;;;;;4.88;0.10;;;;;;;11.61;40.85;102139.38;4973783;28;20026;-72
2023/10/16 10:19:36;;;;;;;2.42;0.20;;;;;;;11.79;40.73;102140.72;4970654;28;21604;-69
2023/10/16 10:22:06;;;;;;;5.10;0.28;;;;;;;11.83;41.11;102139.75;4972335;28;20034;-70
2023/10/16 10:24:45;;;;;;;1.25;0.10;;;;;;;11.99;39.95;102142.84;4974489;28;20452;-71
2023/10/16 10:27:11;;;;;;;3.53;0.10;;;;;;;12.49;39.16;102146.75;4955726;28;20046;-69
2023/10/16 10:29:41;;;;;;;4.22;0.10;;;;;;;12.68;40.69;102141.81;4975901;28;20118;-68
2023/10/16 10:32:12;;;;;;;6.28;0.47;;;;;;;12.76;39.96;102148.63;4958284;28;20060;-70
2023/10/16 10:34:38;;;;;;;1.77;0.10;;;;;;;12.68;39.30;102149.69;4945045;28;20237;-71
2023/10/16 10:37:44;;;;;;;3.67;0.20;;;;;;;12.87;39.00;102154.41;4950254;28;20287;-68
2023/10/16 10:40:21;;;;;;;0.52;0.10;;;;;;;11.90;40.43;102158.81;4970809;28;20042;-70
2023/10/16 10:42:49;;;;;;;1.77;0.10;;;;;;;11.81;40.76;102168.59;4962834;28;20136;-70
2023/10/16 10:45:17;;;;;;;5.82;0.20;;;;;;;11.04;44.49;102175.56;4965076;28;20193;-70
2023/10/16 10:47:43;;;;;;;6.25;0.13;;;;;;;9.71;47.65;102173.59;4964383;28;20046;-70
2023/10/16 10:50:15;;;;;;;4.55;0.70;;;;;;;9.25;49.65;102187.31;4957682;28;20328;-70
2023/10/16 10:52:43;;;;;;;1.10;0.20;;;;;;;8.56;49.98;102172.47;4961388;28;20408;-70
2023/10/16 10:55:18;;;;;;;4.15;0.10;;;;;;;8.63;50.87;102175.88;4970443;28;20280;-68
2023/10/16 10:57:55;;;;;;;2.88;0.30;;;;;;;8.68;50.17;102180.16;4976703;28;20042;-67
2023/10/16 11:05:30;;;;;;;2.72;0.10;;;;;;;9.15;47.46;102164.84;4979239;28;20621;-69
2023/10/16 11:10:44;;;;;;;0.52;0.10;;;;;;;9.21;50.03;102185.66;4985470;28;20559;-69
2023/10/16 11:13:10;;;;;;;1.48;0.20;;;;;;;9.15;50.25;102185.72;4973948;28;20073;-68
2023/10/16 11:15:37;;;;;;;4.10;0.45;;;;;;;9.34;51.06;102179.38;4981368;28;20591;-68
2023/10/16 11:18:13;;;;;;;4.07;0.10;;;;;;;9.44;51.15;102176.63;4986961;28;20611;-67
2023/10/16 11:20:39;;;;;;;2.10;0.30;;;;;;;9.66;50.63;102175.41;4978316;28;20482;-67
2023/10/16 11:23:14;;;;;;;3.00;0.10;;;;;;;9.48;51.58;102171.34;4973953;28;20069;-67
2023/10/16 11:25:45;;;;;;;2.30;0.20;;;;;;;9.55;51.24;102169.50;4978734;28;20100;-66
2023/10/16 11:28:17;;;;;;;2.73;0.30;;;;;;;9.73;50.86;102174.44;4968745;28;20053;-65
2023/10/16 11:30:44;;;;;;;2.35;0.55;;;;;;;9.71;49.93;102163.16;4978129;28;21036;-70
2023/10/16 11:33:12;;;;;;;3.45;0.10;;;;;;;9.98;49.95;102163.63;4974091;28;21251;-67
2023/10/16 11:35:46;;;;;;;5.40;0.20;;;;;;;9.99;48.62;102160.09;4984331;28;20447;-67
2023/10/16 11:38:19;;;;;;;2.15;0.20;;;;;;;10.32;48.50;102153.41;4965912;28;20073;-67
2023/10/16 11:40:47;;;;;;;8.85;0.60;;;;;;;10.61;48.61;102147.63;4984620;28;20497;-70
2023/10/16 11:43:14;;;;;;;3.50;0.28;;;;;;;10.58;47.23;102152.09;4974170;28;20086;-68
2023/10/16 11:45:42;;;;;;;9.60;0.43;;;;;;;11.13;47.87;102150.09;4976491;28;20042;-67
2023/10/16 11:51:05;;;;;;;0.85;0.10;;;;;;;11.97;45.42;102148.13;4976120;28;20038;-69
2023/10/16 11:53:31;;;;;;;;;;;;;;;12.19;45.24;102152.81;4977113;28;20223;-68
2023/10/16 11:55:58;;;;;;;2.53;0.45;;;;;;;12.33;45.96;102150.66;4973425;28;20352;-66
2023/10/16 11:58:23;;;;;;;6.25;0.17;;;;;;;12.65;44.19;102147.16;4976552;28;20681;-68
2023/10/16 12:00:53;;;;;;;4.53;0.20;;;;;;;12.72;43.54;102155.75;4980793;28;20343;-69
2023/10/16 12:03:20;;;;;;;3.33;0.40;;;;;;;12.46;43.81;102161.69;4976877;28;20276;-67
2023/10/16 12:05:45;;;;;;;3.60;0.45;;;;;;;11.52;45.35;102157.94;4977121;28;20085;-68
2023/10/16 12:08:10;;;;;;;1.95;0.10;;;;;;;10.84;47.17;102172.53;4972061;28;20284;-68
2023/10/16 12:10:36;;;;;;;2.50;0.20;;;;;;;10.01;48.99;102169.66;4977552;28;20050;-69
2023/10/16 12:13:03;;;;;;;2.20;0.20;;;;;;;9.95;49.76;102179.34;4967790;28;20459;-70
2023/10/16 12:15:32;;;;;;;6.72;0.40;;;;;;;9.62;50.29;102175.50;4975597;28;20262;-71
2023/10/16 12:18:00;;;;;;;2.50;0.50;;;;;;;9.63;50.47;102172.84;4972200;28;20180;-71
2023/10/16 12:20:27;;;;;;;3.17;0.35;;;;;;;9.83;50.34;102166.47;4961369;28;20231;-69
2023/10/16 12:22:56;;;;;;;4.32;0.22;;;;;;;10.13;49.49;102158.13;4972697;28;20501;-68
2023/10/16 12:25:23;;;;;;;5.43;0.47;;;;;;;10.15;49.46;102166.81;4976488;28;20579;-72
2023/10/16 12:27:50;;;;;;;3.58;0.90;;;;;;;10.31;48.92;102162.16;4975174;28;20081;-66
2023/10/16 12:30:17;;;;;;;7.95;0.75;;;;;;;10.30;48.75;102155.19;4974823;28;20490;-65
2023/10/16 12:32:43;;;;;;;2.47;0.47;;;;;;;10.58;49.28;102160.78;4975696;28;20528;-66
2023/10/16 12:35:10;;;;;;;1.40;0.10;;;;;;;10.52;48.49;102152.19;4974757;28;20051;-67
2023/10/16 12:37:36;;;;;;;6.35;2.65;;;;;;;10.86;47.98;102149.81;4988631;28;21348;-68
2023/10/16 12:40:24;;;;;;;6.47;1.75;;;;;;;11.27;48.14;102149.81;4980565;28;20121;-67
2023/10/16 12:42:47;;;;;;;5.45;0.80;;;;;;;11.67;47.55;102152.34;4974756;28;20217;-68
2023/10/16 12:45:12;;;;;;;5.35;0.85;;;;;;;11.74;46.74;102153.91;4974408;28;20060;-66
2023/10/16 12:47:38;;;;;;;1.85;0.88;;;;;;;12.20;46.81;102149.28;4976932;28;20050;-71
2023/10/16 12:50:05;;;;;;;2.03;0.40;;;;;;;12.09;45.99;102149.56;4974638;28;20029;-70
2023/10/16 12:52:31;;;;;;;0.98;0.25;;;;;;;12.05;46.69;102154.03;4972859;28;20465;-68
2023/10/16 12:55:00;;;;;;;2.95;0.25;;;;;;;12.10;44.92;102153.91;4973692;28;20025;-69
2023/10/16 12:57:27;;;;;;;1.92;0.10;;;;;;;11.75;44.41;102146.91;4973288;28;20049;-68
2023/10/16 12:59:56;;;;;;;2.75;0.10;;;;;;;10.31;46.44;102161.31;4980385;28;20069;-68
2023/10/16 13:02:28;;;;;;;2.28;0.10;;;;;;;9.82;48.25;102167.38;4982764;28;20049;-72
2023/10/16 13:04:55;;;;;;;1.38;0.17;;;;;;;9.84;48.79;102165.63;4976492;28;20034;-72
2023/10/16 13:07:24;;;;;;;1.85;0.38;;;;;;;10.02;48.50;102170.53;4987940;28;20539;-70
2023/10/16 13:09:53;;;;;;;4.80;0.10;;;;;;;10.31;47.88;102171.75;4973994;28;20340;-70
2023/10/16 13:12:21;;;;;;;0.88;0.08;;;;;;;10.13;46.86;102157.28;4972345;28;20058;-72
2023/10/16 13:14:49;;;;;;;2.55;0.10;;;;;;;10.72;46.70;102162.25;4981723;28;20065;-73
2023/10/16 13:17:15;;;;;;;2.28;0.00;;;;;;;10.42;45.78;102156.75;4972672;28;20046;-71
2023/10/16 13:19:40;;;;;;;1.50;0.03;;;;;;;10.86;45.16;102156.78;4973490;28;20049;-72
2023/10/16 13:22:10;;;;;;;2.25;0.10;;;;;;;11.03;44.58;102155.53;4972268;28;20037;-70
2023/10/16 13:24:36;;;;;;;1.65;0.05;;;;;;;11.24;43.74;102153.31;4974044;28;20443;-74
2023/10/16 13:27:01;;;;;;;0.60;0.10;;;;;;;11.44;43.48;102153.75;4980372;28;20025;-68
2023/10/16 13:29:27;;;;;;;4.13;0.57;;;;;;;11.30;41.62;102155.81;4976672;28;20065;-68
2023/10/16 13:31:56;;;;;;;0.40;0.10;;;;;;;12.26;41.31;102149.97;4981300;28;20206;-66
2023/10/16 13:34:21;;;;;;;0.70;0.10;;;;;;;12.25;42.44;102150.03;4973567;28;20035;-67
2023/10/16 13:37:00;;;;;;;0.57;0.08;;;;;;;12.47;39.24;102152.94;4987004;28;20084;-67
2023/10/16 13:39:26;;;;;;;1.27;0.05;;;;;;;12.74;38.39;102148.69;4975266;28;20062;-68
2023/10/16 13:41:53;;;;;;;0.73;0.05;;;;;;;12.72;38.48;102147.03;4976205;28;20112;-68
2023/10/16 13:44:23;;;;;;;0.98;0.20;;;;;;;12.41;37.86;102142.59;4974906;28;21670;-67
2023/10/16 13:46:49;;;;;;;0.47;0.10;;;;;;;11.94;38.13;102147.34;4977656;28;20393;-69
2023/10/16 13:49:17;;;;;;;1.20;0.03;;;;;;;12.20;39.43;102150.16;4963191;28;20489;-71
2023/10/16 13:51:44;;;;;;;0.30;0.00;;;;;;;11.79;39.86;102149.44;4977304;28;20747;-67
2023/10/16 13:54:12;;;;;;;0.80;0.00;;;;;;;12.60;38.54;102149.06;4976710;28;20046;-69
2023/10/16 13:56:42;;;;;;;0.13;0.00;;;;;;;13.51;38.02;102143.72;4976501;28;20304;-66
2023/10/16 13:59:08;;;;;;;1.40;0.00;;;;;;;14.00;36.73;102149.16;4976586;28;20091;-71
2023/10/16 14:01:42;;;;;;;0.75;0.00;;;;;;;13.77;37.27;102144.69;4977814;28;20260;-72
2023/10/16 14:04:15;;;;;;;0.32;0.10;;;;;;;12.90;37.33;102146.47;4979598;28;20073;-68
2023/10/16 14:06:43;;;;;;;4.15;0.35;;;;;;;12.31;38.39;102146.38;4964511;28;20027;-66
2023/10/16 14:09:28;;;;;;;5.28;0.30;;;;;;;11.99;38.94;102142.84;5003873;28;20037;-67
2023/10/16 14:11:58;;;;;;;0.45;0.10;;;;;;;11.21;40.04;102145.56;4979050;28;20030;-67